Overview Statistics Trail Chart Weather Telemetry Raw packets
 

This is the latest recevied weather packets stored in our database for station/object VY2CRA-4. If no packets are shown the sender has not sent any weather packets the latest 10 day(s).

<< 1 2 3 4 5 6 7 >>
Time Temp. Humidity Pressure Rain* Wind** Luminosity Snow
1788532233 22.78° C 46% 1005.6 hPa 0 mm - - -
1788531032 23.33° C 45% 1005.8 hPa 0 mm - - -
1788529831 23.89° C 44% 1005.7 hPa 0 mm - - -
1788527429 24.44° C 42% 1006.3 hPa 0 mm - - -
1788526228 25° C 39% 1006.4 hPa 0 mm - - -
1788525027 25.56° C 37% 1006.6 hPa 0 mm - - -
1788511817 21.67° C 52% 1008.4 hPa 0 mm - - -
1788510616 21.67° C 52% 1008.6 hPa 0 mm - - -
1788509415 21.67° C 51% 1008.8 hPa 0 mm - - -
1788508214 21.67° C 51% 1009.1 hPa 0 mm - - -
1788507013 21.67° C 51% 1009.6 hPa 0 mm - - -
1788505812 21.67° C 51% 1009.8 hPa 0 mm - - -
1788504611 22.22° C 50% 1010.2 hPa 0 mm - - -
1788503437 22.22° C 49% 1010.5 hPa 0 mm - - -
1788501008 22.22° C 48% 1010.8 hPa 0 mm - - -
1788498607 22.22° C 46% 1011.6 hPa 0 mm - - -
1788497406 22.22° C 46% 1011.7 hPa 0 mm - - -
1788495004 22.22° C 45% 1012.1 hPa 0 mm - - -
1788493803 22.22° C 44% 1012.3 hPa 0 mm - - -
1788491401 22.22° C 44% 1012.6 hPa 0 mm - - -
1788490200 22.22° C 43% 1012.7 hPa 0 mm - - -
1788487798 22.22° C 42% 1013.2 hPa 0 mm - - -
1788486597 22.22° C 41% 1013.3 hPa 0 mm - - -
1788484195 22.78° C 38% 1014 hPa 0 mm - - -
1788482994 22.78° C 36% 1014.1 hPa 0 mm - - -

* Rain since midnight (hover to see other rain measurements)
** Current wind speed in m/s (hover to see current wind gust speed)